Time;durP1;ratioP1;P1;durP2;ratioP2;P2;SDS_P1;SDS_P2;PMS_P1;PMS_P2;Temp;Humidity;BMP_temperature;BMP_pressure;BME280_temperature;BME280_humidity;BME280_pressure;Samples;Min_cycle;Max_cycle;Signal;HPM_P1;HPM_P2
2022/08/05 00:10:01;;;;;;;1.97;1.63;;;;;;;21.72;70.46;97476.69;18362880;32;20453;-62
2022/08/05 00:20:04;;;;;;;2.03;1.77;;;;;;;21.84;71.00;97484.09;18362622;32;20058;-62
2022/08/05 00:30:09;;;;;;;2.08;1.87;;;;;;;21.88;69.38;97481.44;18347913;32;20057;-62
2022/08/05 00:40:13;;;;;;;2.28;2.00;;;;;;;21.81;69.24;97487.53;18361262;32;20058;-62
2022/08/05 00:50:19;;;;;;;2.00;1.70;;;;;;;21.67;70.60;97463.94;18360808;32;20101;-62
2022/08/05 01:00:22;;;;;;;4.53;1.60;;;;;;;21.59;72.12;97481.41;18346244;32;20089;-62
2022/08/05 01:10:33;;;;;;;2.28;1.85;;;;;;;21.45;71.40;97481.75;18359964;32;20050;-62
2022/08/05 01:21:06;;;;;;;2.20;1.90;;;;;;;21.23;74.03;97491.28;18345855;32;20054;-62
2022/08/05 01:31:28;;;;;;;2.20;1.98;;;;;;;21.01;73.06;97505.47;18358828;32;20102;-62
2022/08/05 01:41:34;;;;;;;1.90;1.67;;;;;;;20.82;72.56;97491.16;18358831;32;20106;-62
2022/08/05 01:51:39;;;;;;;4.68;2.42;;;;;;;20.72;72.55;97488.88;18358073;32;20480;-62
2022/08/05 02:01:55;;;;;;;2.00;1.80;;;;;;;20.57;73.57;97497.72;18357950;32;20046;-62
2022/08/05 02:11:59;;;;;;;2.17;1.80;;;;;;;20.45;73.75;97504.00;18343989;32;20346;-62
2022/08/05 02:22:20;;;;;;;2.10;1.90;;;;;;;20.31;74.78;97504.31;18356919;32;20050;-62
2022/08/05 02:32:30;;;;;;;2.97;1.80;;;;;;;20.17;75.65;97496.34;18356844;32;20410;-62
2022/08/05 02:42:34;;;;;;;2.45;2.12;;;;;;;20.02;77.13;97507.94;18364439;32;20120;-62
2022/08/05 02:52:37;;;;;;;2.37;1.85;;;;;;;19.85;77.61;97514.41;18366397;32;20085;-62
2022/08/05 03:02:44;;;;;;;3.22;1.90;;;;;;;19.72;78.33;97516.22;18353146;32;20062;-62
2022/08/05 03:12:46;;;;;;;3.62;1.90;;;;;;;19.61;78.94;97516.63;18366266;32;20072;-62
2022/08/05 03:22:54;;;;;;;2.22;2.00;;;;;;;19.47;79.27;97511.41;18365883;32;20421;-62
2022/08/05 03:33:00;;;;;;;2.40;1.90;;;;;;;19.39;79.69;97511.44;18365021;32;20113;-62
2022/08/05 03:43:02;;;;;;;4.12;2.03;;;;;;;19.29;81.05;97505.22;18364399;32;20065;-62
2022/08/05 03:53:25;;;;;;;2.22;1.98;;;;;;;19.22;81.38;97507.66;18349570;32;20058;-62
2022/08/05 04:03:49;;;;;;;3.12;2.40;;;;;;;19.23;81.41;97503.78;18363385;32;20054;-62
2022/08/05 04:14:11;;;;;;;3.72;2.15;;;;;;;19.32;81.90;97498.25;18362681;32;20083;-62
2022/08/05 04:24:19;;;;;;;3.10;2.30;;;;;;;19.36;82.39;97490.97;18348388;32;20139;-62
2022/08/05 04:34:23;;;;;;;3.37;2.10;;;;;;;19.32;83.78;97506.47;18361751;32;20088;-62
2022/08/05 04:44:35;;;;;;;2.83;2.03;;;;;;;19.27;83.63;97510.22;18361514;32;20468;-62
2022/08/05 04:54:37;;;;;;;2.40;2.20;;;;;;;19.37;83.85;97511.00;18346576;32;20112;-62
2022/08/05 05:04:40;;;;;;;3.28;2.33;;;;;;;19.72;82.91;97546.41;18333477;32;20054;-62
2022/08/05 05:14:49;;;;;;;5.50;3.00;;;;;;;20.07;82.64;97601.06;18359871;32;20537;-62
2022/08/05 05:24:54;;;;;;;4.50;2.12;;;;;;;20.22;77.71;97638.91;18359958;32;20050;-62
2022/08/05 05:35:01;;;;;;;2.65;2.08;;;;;;;20.59;81.25;97632.78;18358971;32;20479;-62
2022/08/05 05:45:07;;;;;;;2.95;2.58;;;;;;;21.09;78.92;97639.28;18358637;32;20050;-62
2022/08/05 05:55:13;;;;;;;3.35;2.30;;;;;;;21.81;77.70;97639.69;18357822;32;20468;-62
2022/08/05 06:05:17;;;;;;;3.28;2.33;;;;;;;22.10;78.09;97642.53;18344286;32;20422;-62
2022/08/05 06:15:23;;;;;;;3.30;2.75;;;;;;;22.22;79.15;97645.28;18363103;32;20072;-62
2022/08/05 06:25:46;;;;;;;3.50;2.50;;;;;;;22.56;78.05;97658.88;18368440;32;20072;-62
2022/08/05 06:36:10;;;;;;;4.47;2.95;;;;;;;22.75;79.22;97685.78;18367696;32;20113;-62
2022/08/05 06:46:14;;;;;;;2.95;2.65;;;;;;;22.85;79.08;97694.34;18366967;32;20054;-62
2022/08/05 06:56:19;;;;;;;3.45;2.15;;;;;;;22.76;75.22;97709.44;18352194;32;20108;-62
2022/08/05 07:06:29;;;;;;;5.82;2.30;;;;;;;23.13;70.46;97725.88;18366488;32;20069;-62
2022/08/05 07:16:49;;;;;;;6.43;1.90;;;;;;;23.99;64.71;97716.28;18365746;32;20132;-61
2022/08/05 07:27:15;;;;;;;3.47;1.70;;;;;;;24.46;60.51;97725.62;18365514;32;20075;-61
2022/08/05 07:37:18;;;;;;;2.83;1.62;;;;;;;25.04;56.39;97733.22;18364957;32;20468;-61
2022/08/05 07:47:23;;;;;;;4.90;1.87;;;;;;;25.32;53.87;97746.78;18350516;32;20072;-61
2022/08/05 07:57:28;;;;;;;2.10;1.50;;;;;;;25.79;52.88;97760.72;18363224;32;20118;-61
2022/08/05 08:07:51;;;;;;;2.80;1.65;;;;;;;25.40;55.79;97763.59;18363515;32;20088;-61
2022/08/05 08:18:02;;;;;;;2.78;1.90;;;;;;;26.54;52.30;97761.94;18338028;32;20079;-61
2022/08/05 08:28:16;;;;;;;3.42;2.17;;;;;;;27.46;50.03;97761.94;18336271;32;20046;-61
2022/08/05 08:38:39;;;;;;;3.67;2.22;;;;;;;27.79;48.09;97761.09;18360822;32;20062;-61
2022/08/05 08:48:46;;;;;;;4.07;1.87;;;;;;;27.86;50.05;97743.66;18347094;32;20060;-61
2022/08/05 08:59:11;;;;;;;4.68;2.20;;;;;;;28.00;48.25;97731.94;18360664;32;20100;-61
2022/08/05 09:09:29;;;;;;;3.12;2.20;;;;;;;28.24;48.54;97730.50;18360393;32;20091;-61
2022/08/05 09:19:38;;;;;;;5.12;1.98;;;;;;;28.96;47.61;97721.75;18346705;32;20072;-61
2022/08/05 09:30:05;;;;;;;4.65;2.12;;;;;;;29.49;46.58;97723.16;18359082;32;20390;-61
2022/08/05 09:40:31;;;;;;;5.85;2.28;;;;;;;28.99;50.38;97718.22;18358756;32;20054;-61
2022/08/05 09:50:39;;;;;;;5.87;1.95;;;;;;;29.08;45.99;97716.66;18344530;32;20050;-61
2022/08/05 10:01:03;;;;;;;2.40;2.12;;;;;;;28.81;48.44;97709.81;18358120;32;20101;-61
2022/08/05 10:11:19;;;;;;;2.47;1.95;;;;;;;29.58;50.52;97704.06;18357798;32;20054;-61
2022/08/05 10:21:37;;;;;;;7.65;2.35;;;;;;;29.98;47.65;97696.53;18357187;32;20074;-61
2022/08/05 10:31:43;;;;;;;6.10;2.50;;;;;;;30.30;43.46;97678.97;18356714;32;20090;-61
2022/08/05 10:42:23;;;;;;;3.40;2.35;;;;;;;31.18;40.89;97681.06;18344936;32;20072;-61
2022/08/05 10:52:58;;;;;;;4.57;2.65;;;;;;;31.89;43.18;97669.78;18355758;32;20371;-62
2022/08/05 11:03:08;;;;;;;2.40;2.20;;;;;;;32.75;40.86;97670.94;18362956;32;20073;-61
2022/08/05 11:13:49;;;;;;;3.62;2.90;;;;;;;32.09;39.33;97670.78;18366080;32;20071;-62
2022/08/05 11:24:11;;;;;;;4.28;2.60;;;;;;;31.95;39.16;97659.75;18365634;32;20068;-62
2022/08/05 11:34:41;;;;;;;3.37;2.58;;;;;;;30.87;42.66;97666.03;18353726;32;20050;-62
2022/08/05 11:45:02;;;;;;;3.65;2.70;;;;;;;31.33;45.05;97670.59;18351919;32;20057;-61
2022/08/05 11:55:07;;;;;;;5.22;2.47;;;;;;;32.24;40.36;97659.50;18350254;32;20098;-61
2022/08/05 12:05:25;;;;;;;2.95;2.10;;;;;;;31.98;37.08;97664.50;18349900;32;20068;-61
2022/08/05 12:15:43;;;;;;;3.33;2.80;;;;;;;32.81;36.48;97651.66;18362998;32;20062;-61
2022/08/05 12:25:53;;;;;;;2.83;2.42;;;;;;;33.25;37.35;97642.25;18349079;32;20365;-61
2022/08/05 12:35:59;;;;;;;3.17;2.87;;;;;;;33.85;33.75;97638.94;18362073;32;20073;-61
2022/08/05 12:46:03;;;;;;;2.80;2.60;;;;;;;34.32;34.93;97629.69;18361277;32;20096;-62
2022/08/05 12:56:21;;;;;;;3.12;2.78;;;;;;;34.34;34.88;97621.59;18334482;32;20342;-61
2022/08/05 13:06:42;;;;;;;3.10;2.58;;;;;;;34.91;32.70;97610.44;18360431;32;20061;-61
2022/08/05 13:16:57;;;;;;;4.55;3.10;;;;;;;35.07;30.27;97607.66;18359889;32;20062;-61
2022/08/05 13:27:00;;;;;;;2.92;2.67;;;;;;;35.58;33.20;97595.22;18359087;32;20054;-61
2022/08/05 13:37:02;;;;;;;3.05;2.75;;;;;;;36.07;33.99;97581.09;18345763;32;20116;-61
2022/08/05 13:47:09;;;;;;;3.62;3.08;;;;;;;36.30;31.90;97582.06;18358548;32;20075;-61
2022/08/05 13:57:31;;;;;;;3.15;2.85;;;;;;;36.35;30.52;97573.09;18357800;32;20050;-61
2022/08/05 14:07:55;;;;;;;4.97;2.90;;;;;;;37.23;29.68;97567.22;18335946;32;20049;-61
2022/08/05 14:18:11;;;;;;;3.17;2.87;;;;;;;37.56;29.62;97563.34;18357019;32;20065;-61
2022/08/05 14:28:24;;;;;;;3.15;2.85;;;;;;;37.73;32.44;97581.69;18357112;32;20053;-61
2022/08/05 14:38:28;;;;;;;4.22;2.85;;;;;;;37.45;31.68;97575.00;18364735;32;20449;-61
2022/08/05 14:48:37;;;;;;;3.80;2.87;;;;;;;38.29;29.81;97579.34;18367732;32;20409;-61
2022/08/05 14:58:40;;;;;;;3.53;2.70;;;;;;;38.09;27.75;97569.16;18366455;32;20358;-61
2022/08/05 15:08:55;;;;;;;3.95;2.75;;;;;;;37.68;28.52;97564.56;18366171;32;20042;-61
2022/08/05 15:19:01;;;;;;;3.80;2.78;;;;;;;36.61;31.91;97561.87;18352529;32;20050;-61
2022/08/05 15:29:04;;;;;;;3.33;2.55;;;;;;;35.44;28.96;97549.38;18365117;32;20113;-60
2022/08/05 15:39:08;;;;;;;2.75;2.50;;;;;;;34.52;30.77;97553.09;18350491;32;20051;-61
2022/08/05 15:49:31;;;;;;;4.78;2.47;;;;;;;33.48;33.46;97558.62;18352375;32;20057;-61
2022/08/05 15:59:54;;;;;;;3.83;2.45;;;;;;;32.82;34.13;97553.22;18352453;32;20121;-61
2022/08/05 16:09:59;;;;;;;2.47;2.00;;;;;;;32.65;35.76;97552.25;18363095;32;20050;-61
2022/08/05 16:20:02;;;;;;;4.03;2.55;;;;;;;32.12;36.34;97554.50;18335749;32;20116;-61
2022/08/05 16:30:15;;;;;;;4.68;2.65;;;;;;;31.24;40.17;97578.84;18348166;32;20057;-60
2022/08/05 16:40:28;;;;;;;3.40;2.28;;;;;;;30.79;40.83;97591.91;18361757;32;20090;-61
2022/08/05 16:50:31;;;;;;;4.78;2.62;;;;;;;30.34;42.64;97607.22;18360933;32;20046;-61
2022/08/05 17:00:34;;;;;;;6.37;3.10;;;;;;;29.61;44.13;97591.81;18359817;32;20065;-61
2022/08/05 17:10:39;;;;;;;6.30;2.90;;;;;;;29.07;45.85;97612.06;18346724;32;20050;-59
2022/08/05 17:20:43;;;;;;;3.25;2.50;;;;;;;28.67;47.28;97627.88;18321067;32;20349;-60
2022/08/05 17:30:47;;;;;;;3.90;2.40;;;;;;;28.11;48.05;97656.94;18345632;32;20441;-60
2022/08/05 17:40:54;;;;;;;3.78;2.47;;;;;;;27.86;48.67;97685.31;18333584;32;20102;-61
2022/08/05 17:50:58;;;;;;;6.62;2.45;;;;;;;27.30;50.29;97710.19;18344432;32;20375;-60
2022/08/05 18:01:02;;;;;;;4.37;2.50;;;;;;;26.89;51.33;97708.16;18358095;32;20084;-60
2022/08/05 18:11:09;;;;;;;5.47;2.30;;;;;;;26.58;52.36;97748.12;18350548;32;20054;-60
2022/08/05 18:21:29;;;;;;;5.78;2.10;;;;;;;26.41;53.02;97784.69;18354701;32;20065;-60
2022/08/05 18:31:54;;;;;;;2.25;2.05;;;;;;;26.25;53.69;97805.06;18368264;32;20429;-60
2022/08/05 18:41:57;;;;;;;4.10;2.50;;;;;;;25.88;54.97;97822.22;18353564;32;20100;-60
2022/08/05 19:02:35;;;;;;;2.83;2.10;;;;;;;25.50;55.77;97863.44;18366739;32;20434;-60
2022/08/05 19:12:39;;;;;;;2.08;1.67;;;;;;;25.27;56.38;97882.72;18366150;32;20057;-60
2022/08/05 19:22:44;;;;;;;2.35;1.90;;;;;;;25.05;56.79;97892.47;18339297;32;20065;-60
2022/08/05 19:32:46;;;;;;;2.62;1.92;;;;;;;24.94;55.46;97947.59;18351667;32;20064;-60
2022/08/05 19:42:50;;;;;;;3.58;1.85;;;;;;;24.91;55.89;97953.03;18351352;32;20054;-60
2022/08/05 19:53:08;;;;;;;2.05;1.30;;;;;;;24.83;54.71;97965.84;18363944;32;20101;-60
2022/08/05 20:03:12;;;;;;;2.78;1.58;;;;;;;24.78;53.35;97982.75;18363728;32;20087;-60
2022/08/05 20:13:18;;;;;;;4.75;1.48;;;;;;;24.70;53.87;98012.97;18349133;32;20062;-60
2022/08/05 20:23:43;;;;;;;1.92;1.40;;;;;;;24.68;53.31;98023.59;18362791;32;20120;-60
2022/08/05 20:33:54;;;;;;;;;;;;;;;24.47;55.24;98017.47;18347284;32;20105;-60
2022/08/05 20:44:00;;;;;;;2.78;1.50;;;;;;;24.34;53.83;98009.22;18361668;32;19964;-60
2022/08/05 20:54:24;;;;;;;1.80;1.27;;;;;;;24.28;52.50;98024.44;18346948;32;20113;-60
2022/08/05 21:04:46;;;;;;;1.77;1.50;;;;;;;24.06;55.19;98044.34;18360524;32;20362;-60
2022/08/05 21:14:52;;;;;;;2.42;1.67;;;;;;;23.35;60.69;98069.38;18360255;32;20079;-60
2022/08/05 21:24:56;;;;;;;3.37;2.00;;;;;;;22.89;63.82;98102.53;18359732;32;20092;-60
2022/08/05 21:34:58;;;;;;;3.13;2.10;;;;;;;22.66;64.62;98111.19;18348163;32;20066;-60
2022/08/05 21:45:20;;;;;;;4.75;2.30;;;;;;;22.41;71.29;98143.34;18295312;32;20399;-61
2022/08/05 21:55:45;;;;;;;2.85;2.33;;;;;;;22.00;77.14;98129.19;18260538;32;20062;-61
2022/08/05 22:06:08;;;;;;;3.70;2.00;;;;;;;21.47;83.19;98134.19;18281195;32;20054;-61
2022/08/05 22:16:11;;;;;;;5.00;2.73;;;;;;;20.98;87.23;98131.75;18280609;32;20398;-61
2022/08/05 22:36:58;;;;;;;3.23;2.33;;;;;;;20.65;91.99;98167.19;18293148;32;20147;-61
2022/08/05 22:47:04;;;;;;;4.85;3.30;;;;;;;20.52;92.67;98165.44;18279531;32;20102;-61
2022/08/05 22:57:08;;;;;;;5.12;3.00;;;;;;;20.27;92.78;98171.37;18221128;32;20051;-61
2022/08/05 23:07:11;;;;;;;6.23;3.43;;;;;;;20.25;94.06;98162.66;18239044;32;20039;-61
2022/08/05 23:17:23;;;;;;;5.30;3.50;;;;;;;20.05;94.94;98163.28;18239191;32;20422;-61
2022/08/05 23:27:39;;;;;;;5.43;3.23;;;;;;;19.89;95.01;98150.00;18237738;32;20054;-61
2022/08/05 23:38:01;;;;;;;3.45;3.05;;;;;;;19.75;96.00;98141.87;18238502;32;20107;-61
2022/08/05 23:48:05;;;;;;;3.78;3.33;;;;;;;19.66;96.47;98135.56;18238019;32;20438;-61
2022/08/05 23:58:10;;;;;;;5.35;3.97;;;;;;;19.56;96.05;98133.91;18236229;32;20054;-61
